Henry Post Army Air Field (Fort Sill)
KFSI : rendu visible

Aérodrome :











RETROUVEZ-NOUS SUR...

 
LOGIN :

S'inscrire | Disclaimer

   EN    FR    IT 

 









Légende :    VFR   VFR Marginal   IFR   IFR Intensif   IFR Très Intensif
Visi : 
Plafond : 
>= 8 km
>= 3000ft
5 à 8 km
1000 à 3000 ft
1500m à 5 km
500 à 1000 ft
800 à 1500m
200 à 500 ft
< 800m
< 200 ft
Symboles :   Orages  Brouillard  Fortes neiges  Fortes précipitations  Vent > 20 kt






- Altitude de l'aérodrome : 1189 ft


KFSI - Henry Post Army Air Field (Fort Sill)

DERNIER METAR :
  • 162256Z AUTO 16011KT 10SM CLR 15/05 A3000 RMK AO2 SLP160 T01520046

METARs EXPIRÉS :
  • 162156Z AUTO 18014G20KT 10SM CLR 18/05 A3000 RMK AO2 SLP157 T01770046
  • 162056Z AUTO 17013KT 10SM CLR 18/05 A3001 RMK AO2 SLP161 T01820051 57038

TAF TAF KFSI
Valide du 15 à 22h jusqu'au 17 à 04h UTC


152200Z 1522/1704 17009KT 9999 FEW200 QNH3014INS
BECMG 1617/1618 17012G18KT 9999 FEW210 QNH3000INS
BECMG 1700/1701 16009KT 9999 SCT200 510062 QNH3001INS TX16/1522Z TN01/1612Z LAST NO AMDS AFT 1604 NEXT 1814



MET'MAP, la Météo Aéronautique d'un coup d'oeil ! - Copyright ORBIFLY Décembre 2007 - Disclaimer

ORBIFLY MET'MAP TEAM :

Programmation & Développement : Alexandra Zaïnal
Conception & Développement : Baudouin d'Aumeries
Co-Programmation & Développement : Marc-Olivier Méhu
Soutien technique & logistique : Manuel Goepfert

Contact : metmap@orbifly.com




SOURCES & CREDITS :

   NOAA       Earth
Advisory